createdAt,value
2022-10-28T00:01:06.910Z,6.47
2022-10-28T00:03:33.537Z,6.68
2022-10-28T00:06:05.553Z,7.22
2022-10-28T00:08:33.167Z,6.50
2022-10-28T00:11:08.065Z,7.10
2022-10-28T00:13:35.350Z,6.97
2022-10-28T00:16:08.047Z,6.82
2022-10-28T00:18:34.844Z,6.90
2022-10-28T00:21:09.599Z,7.18
2022-10-28T00:23:36.388Z,7.20
2022-10-28T00:26:12.135Z,6.88
2022-10-28T00:28:46.673Z,6.63
2022-10-28T00:31:16.597Z,5.75
2022-10-28T00:33:43.241Z,5.90
2022-10-28T00:36:11.695Z,5.63
2022-10-28T00:38:38.617Z,5.82
2022-10-28T00:41:05.854Z,5.88
2022-10-28T00:43:35.266Z,5.97
2022-10-28T00:46:03.280Z,6.00
2022-10-28T00:48:30.182Z,5.93
2022-10-28T00:50:57.021Z,6.43
2022-10-28T00:53:28.357Z,6.18
2022-10-28T00:55:56.793Z,6.55
2022-10-28T00:58:26.036Z,6.75
2022-10-28T01:00:53.055Z,6.47
2022-10-28T01:03:19.531Z,6.63
2022-10-28T01:05:48.493Z,6.45
2022-10-28T01:08:15.974Z,6.28
2022-10-28T01:10:56.482Z,6.40
2022-10-28T01:13:34.843Z,6.63
2022-10-28T01:16:17.102Z,7.00
2022-10-28T01:19:05.098Z,7.22
2022-10-28T01:21:40.384Z,7.03
2022-10-28T01:24:17.304Z,7.72
2022-10-28T01:27:14.625Z,7.83
2022-10-28T01:29:48.630Z,7.07
2022-10-28T01:32:56.900Z,8.13
2022-10-28T01:38:11.327Z,6.60
2022-10-28T01:41:08.219Z,5.90
2022-10-28T01:43:46.553Z,6.45
2022-10-28T01:46:24.972Z,6.03
2022-10-28T01:48:57.268Z,6.35
2022-10-28T01:51:43.906Z,6.28
2022-10-28T01:54:13.587Z,5.97
2022-10-28T01:56:42.811Z,6.57
2022-10-28T01:59:17.165Z,6.65
2022-10-28T02:01:43.808Z,6.95
2022-10-28T02:04:10.446Z,7.03
2022-10-28T02:06:38.798Z,6.67
2022-10-28T02:09:19.497Z,5.97
2022-10-28T02:12:18.730Z,6.00
2022-10-28T02:15:00.429Z,5.45
2022-10-28T02:17:43.625Z,5.10
2022-10-28T02:20:26.238Z,5.10
2022-10-28T02:22:59.360Z,6.32
2022-10-28T02:25:34.475Z,5.35
2022-10-28T02:28:14.285Z,5.07
2022-10-28T02:30:40.741Z,5.45
2022-10-28T02:33:12.329Z,6.57
2022-10-28T02:35:52.213Z,5.03
2022-10-28T02:38:25.791Z,5.55
2022-10-28T02:40:56.628Z,6.03
2022-10-28T02:43:25.428Z,6.32
2022-10-28T02:45:56.994Z,6.03
2022-10-28T02:48:41.791Z,6.15
2022-10-28T02:51:21.836Z,6.57
2022-10-28T02:54:04.318Z,7.03
2022-10-28T02:56:37.726Z,6.95
2022-10-28T02:59:08.262Z,6.80
2022-10-28T03:01:34.821Z,7.43
2022-10-28T03:04:01.376Z,7.97
2022-10-28T03:06:27.817Z,6.97
2022-10-28T03:08:54.357Z,6.10
2022-10-28T03:11:20.971Z,6.33
2022-10-28T03:13:47.694Z,6.03
2022-10-28T03:16:14.179Z,6.65
2022-10-28T03:18:40.682Z,6.68
2022-10-28T03:21:07.245Z,5.82
2022-10-28T03:23:33.713Z,4.67
2022-10-28T03:26:00.219Z,5.00
2022-10-28T03:28:26.763Z,4.82
2022-10-28T03:30:53.236Z,5.85
2022-10-28T03:33:19.675Z,5.45
2022-10-28T03:35:46.123Z,5.47
2022-10-28T03:38:12.600Z,6.85
2022-10-28T03:40:39.072Z,6.65
2022-10-28T03:43:05.711Z,6.88
2022-10-28T03:45:32.195Z,6.30
2022-10-28T03:47:58.658Z,5.57
2022-10-28T03:50:25.378Z,6.18
2022-10-28T03:52:51.878Z,5.93
2022-10-28T03:55:18.344Z,5.63
2022-10-28T03:57:44.862Z,6.70
2022-10-28T04:00:11.883Z,5.90
2022-10-28T04:02:38.343Z,6.55
2022-10-28T04:05:05.226Z,7.20
2022-10-28T04:07:31.859Z,5.30
2022-10-28T04:09:58.360Z,4.82
2022-10-28T04:12:24.906Z,5.10
2022-10-28T04:14:51.424Z,5.28
2022-10-28T04:17:17.871Z,5.32
2022-10-28T04:19:44.337Z,4.57
2022-10-28T04:22:10.852Z,5.25
2022-10-28T04:24:37.351Z,4.80
2022-10-28T04:27:03.885Z,5.50
2022-10-28T04:29:31.441Z,5.38
2022-10-28T04:31:58.136Z,5.93
2022-10-28T04:34:24.738Z,5.45
2022-10-28T04:36:51.329Z,4.83
2022-10-28T04:39:17.890Z,4.80
2022-10-28T04:41:44.450Z,5.50
2022-10-28T04:44:10.978Z,4.82
2022-10-28T04:46:37.463Z,5.07
2022-10-28T04:49:04.096Z,6.63
2022-10-28T04:51:30.621Z,5.63
2022-10-28T04:53:57.080Z,5.03
2022-10-28T04:56:23.570Z,5.70
2022-10-28T04:58:50.026Z,6.10
2022-10-28T05:01:16.626Z,5.47
2022-10-28T05:03:43.210Z,5.03
2022-10-28T05:06:09.750Z,5.32
2022-10-28T05:08:36.343Z,5.95
2022-10-28T05:11:03.038Z,6.35
2022-10-28T05:13:29.493Z,5.77
2022-10-28T05:15:56.016Z,5.97
2022-10-28T05:18:22.494Z,6.50
2022-10-28T05:20:52.816Z,6.50
2022-10-28T05:23:19.261Z,6.03
2022-10-28T05:25:45.707Z,5.90
2022-10-28T05:28:12.174Z,5.85
2022-10-28T05:30:38.810Z,6.00
2022-10-28T05:33:05.746Z,6.07
2022-10-28T05:35:32.751Z,5.75
2022-10-28T05:37:59.600Z,6.80
2022-10-28T05:40:26.059Z,6.75
2022-10-28T05:42:55.155Z,6.78
2022-10-28T05:45:22.002Z,5.57
2022-10-28T05:47:49.026Z,6.22
2022-10-28T05:50:18.548Z,6.63
2022-10-28T05:52:46.934Z,6.50
2022-10-28T05:55:13.656Z,6.78
2022-10-28T05:57:41.756Z,6.28
2022-10-28T06:00:11.998Z,6.43
2022-10-28T06:02:38.532Z,8.10
2022-10-28T06:05:05.375Z,7.03
2022-10-28T06:07:31.952Z,6.47
2022-10-28T06:09:58.460Z,6.78
2022-10-28T06:12:23.458Z,6.88
2022-10-28T06:14:50.081Z,6.17
2022-10-28T06:17:16.597Z,5.68
2022-10-28T06:19:43.915Z,6.75
2022-10-28T06:22:11.480Z,6.63
2022-10-28T06:24:38.599Z,7.00
2022-10-28T06:27:05.735Z,6.20
2022-10-28T06:29:33.192Z,5.93
2022-10-28T06:31:59.859Z,6.43
2022-10-28T06:34:26.411Z,5.85
2022-10-28T06:36:53.084Z,6.65
2022-10-28T06:39:19.649Z,6.13
2022-10-28T06:41:46.214Z,5.85
2022-10-28T06:44:12.654Z,6.35
2022-10-28T06:46:40.668Z,5.32
2022-10-28T06:49:09.093Z,5.45
2022-10-28T06:51:35.590Z,4.97
2022-10-28T06:54:02.274Z,4.80
2022-10-28T06:56:28.787Z,4.70
2022-10-28T06:58:55.590Z,5.10
2022-10-28T07:01:22.703Z,5.03
2022-10-28T07:03:49.613Z,5.67
2022-10-28T07:06:17.108Z,5.53
2022-10-28T07:08:43.630Z,5.20
2022-10-28T07:11:10.238Z,5.30
2022-10-28T07:13:36.693Z,4.68
2022-10-28T07:16:05.259Z,4.70
2022-10-28T07:18:32.051Z,4.72
2022-10-28T07:21:00.056Z,5.90
2022-10-28T07:23:28.816Z,4.70
2022-10-28T07:25:56.344Z,4.35
2022-10-28T07:28:24.427Z,4.80
2022-10-28T07:30:51.023Z,4.45
2022-10-28T07:33:17.919Z,4.90
2022-10-28T07:35:44.441Z,4.65
2022-10-28T07:38:11.338Z,5.10
2022-10-28T07:40:38.302Z,4.23
2022-10-28T07:43:04.753Z,4.70
2022-10-28T07:45:31.256Z,4.78
2022-10-28T07:47:57.778Z,4.93
2022-10-28T07:50:24.325Z,5.35
2022-10-28T07:52:50.918Z,4.73
2022-10-28T07:55:17.700Z,4.82
2022-10-28T07:57:44.208Z,4.75
2022-10-28T08:00:11.041Z,4.47
2022-10-28T08:02:38.645Z,5.07
2022-10-28T08:05:05.936Z,4.53
2022-10-28T08:07:34.864Z,4.72
2022-10-28T08:10:04.763Z,4.75
2022-10-28T08:12:31.373Z,5.05
2022-10-28T08:14:57.932Z,5.50
2022-10-28T08:17:24.850Z,4.97
2022-10-28T08:19:51.336Z,6.00
2022-10-28T08:22:18.057Z,5.80
2022-10-28T08:24:44.601Z,6.05
2022-10-28T08:27:11.072Z,5.10
2022-10-28T08:29:37.522Z,5.80
2022-10-28T08:32:04.013Z,7.07
2022-10-28T08:34:31.364Z,6.00
2022-10-28T08:36:58.143Z,7.65
2022-10-28T08:39:24.662Z,7.10
2022-10-28T08:42:32.855Z,7.80
2022-10-28T08:45:17.903Z,8.05
2022-10-28T08:50:40.950Z,7.53
2022-10-28T08:53:16.422Z,6.38
2022-10-28T08:55:46.954Z,7.03
2022-10-28T08:58:21.907Z,6.28
2022-10-28T09:00:54.125Z,7.32
2022-10-28T09:03:22.756Z,6.63
2022-10-28T09:05:54.082Z,7.07
2022-10-28T09:08:26.005Z,5.97
2022-10-28T09:10:58.549Z,5.60
2022-10-28T09:13:46.373Z,6.80
2022-10-28T09:16:45.842Z,5.30
2022-10-28T09:19:35.940Z,5.75
2022-10-28T09:22:20.723Z,5.00
2022-10-28T09:25:01.003Z,5.38
2022-10-28T09:27:39.385Z,19.67
2022-10-28T09:30:06.287Z,4.15
2022-10-28T09:32:41.280Z,9.95
2022-10-28T09:35:18.020Z,4.47
2022-10-28T09:38:04.840Z,5.35
2022-10-28T09:40:35.100Z,3.53
2022-10-28T09:43:16.526Z,3.78
2022-10-28T09:45:48.168Z,4.53
2022-10-28T09:48:26.831Z,3.33
2022-10-28T09:50:55.838Z,3.53
2022-10-28T09:53:42.829Z,2.78
2022-10-28T09:56:09.774Z,3.50
2022-10-28T09:58:42.264Z,3.15
2022-10-28T10:01:08.831Z,3.77
2022-10-28T10:03:35.612Z,3.83
2022-10-28T10:06:16.974Z,3.17
2022-10-28T10:08:45.199Z,3.78
2022-10-28T10:11:39.393Z,4.00
2022-10-28T10:14:13.572Z,3.17
2022-10-28T10:16:52.808Z,3.17
2022-10-28T10:19:19.324Z,8.63
2022-10-28T10:21:48.343Z,3.55
2022-10-28T10:24:35.434Z,3.03
2022-10-28T10:27:10.781Z,3.77
2022-10-28T10:29:44.125Z,4.80
2022-10-28T10:32:18.316Z,2.97
2022-10-28T10:34:49.896Z,3.30
2022-10-28T10:37:21.201Z,4.00
2022-10-28T10:40:07.293Z,3.70
2022-10-28T10:42:39.190Z,3.55
2022-10-28T10:45:18.863Z,4.07
2022-10-28T10:47:45.373Z,3.47
2022-10-28T10:50:22.556Z,4.53
2022-10-28T10:52:52.453Z,3.30
2022-10-28T10:55:38.737Z,4.07
2022-10-28T10:58:14.694Z,4.38
2022-10-28T11:00:47.740Z,3.28
2022-10-28T11:03:48.349Z,3.45
2022-10-28T11:06:26.602Z,4.27
2022-10-28T11:09:05.363Z,3.50
2022-10-28T11:11:36.497Z,3.53
2022-10-28T11:14:08.934Z,3.72
2022-10-28T11:16:53.912Z,3.65
2022-10-28T11:19:34.656Z,3.70
2022-10-28T11:22:09.892Z,4.63
2022-10-28T11:24:57.850Z,4.35
2022-10-28T11:27:39.810Z,3.83
2022-10-28T11:30:13.822Z,3.75
2022-10-28T11:33:28.830Z,4.33
2022-10-28T11:36:16.308Z,3.85
2022-10-28T11:38:58.134Z,3.40
2022-10-28T11:41:30.460Z,3.40
2022-10-28T11:44:05.197Z,5.35
2022-10-28T11:46:36.833Z,5.03
2022-10-28T11:49:44.559Z,4.07
2022-10-28T11:52:49.910Z,4.18
2022-10-28T11:55:39.569Z,3.35
2022-10-28T11:58:43.165Z,3.80
2022-10-28T12:01:35.857Z,4.30
2022-10-28T12:04:48.905Z,3.30
2022-10-28T12:07:37.001Z,3.63
2022-10-28T12:10:22.413Z,3.60
2022-10-28T12:13:06.837Z,3.13
2022-10-28T12:15:43.069Z,3.60
2022-10-28T12:18:09.697Z,3.97
2022-10-28T12:21:07.098Z,3.50
2022-10-28T12:23:37.975Z,3.33
2022-10-28T12:26:08.532Z,2.97
2022-10-28T12:28:43.905Z,4.83
2022-10-28T12:31:26.525Z,4.78
2022-10-28T12:34:00.973Z,2.90
2022-10-28T12:36:41.577Z,3.45
2022-10-28T12:39:26.838Z,3.50
2022-10-28T12:42:00.672Z,3.80
2022-10-28T12:44:28.329Z,4.43
2022-10-28T12:47:05.187Z,3.50
2022-10-28T12:49:56.307Z,3.53
2022-10-28T12:52:43.839Z,3.58
2022-10-28T12:55:13.064Z,2.93
2022-10-28T12:57:45.818Z,3.17
2022-10-28T13:00:23.544Z,3.30
2022-10-28T13:03:01.500Z,3.22
2022-10-28T13:05:37.572Z,3.35
2022-10-28T13:08:07.126Z,2.53
2022-10-28T13:11:21.691Z,2.88
2022-10-28T13:13:48.133Z,5.15
2022-10-28T13:16:35.955Z,3.95
2022-10-28T13:19:23.471Z,3.72
2022-10-28T13:21:57.412Z,3.20
2022-10-28T13:24:32.710Z,3.60
2022-10-28T13:27:03.596Z,3.80
2022-10-28T13:29:33.415Z,2.83
2022-10-28T13:32:00.418Z,3.10
2022-10-28T13:34:37.060Z,3.10
2022-10-28T13:37:06.072Z,3.35
2022-10-28T13:39:46.450Z,3.63
2022-10-28T13:42:12.824Z,3.85
2022-10-28T13:44:49.957Z,2.95
2022-10-28T13:47:16.423Z,3.27
2022-10-28T13:50:04.539Z,3.17
2022-10-28T13:52:31.846Z,3.13
2022-10-28T13:54:58.949Z,3.85
2022-10-28T13:57:35.702Z,3.50
2022-10-28T14:00:07.054Z,3.27
2022-10-28T14:02:44.098Z,3.60
2022-10-28T14:05:13.793Z,3.50
2022-10-28T14:08:01.316Z,3.42
2022-10-28T14:10:33.061Z,4.15
2022-10-28T14:13:03.432Z,3.40
2022-10-28T14:15:38.857Z,3.58
2022-10-28T14:21:06.853Z,3.30
2022-10-28T14:23:33.259Z,3.90
2022-10-28T14:26:04.606Z,3.20
2022-10-28T14:28:31.207Z,4.25
2022-10-28T14:31:12.691Z,3.58
2022-10-28T14:34:04.708Z,4.90
2022-10-28T14:36:49.806Z,3.50
2022-10-28T14:39:45.290Z,4.30
2022-10-28T14:42:30.759Z,3.55
2022-10-28T14:45:30.662Z,4.28
2022-10-28T14:48:24.812Z,4.07
2022-10-28T14:50:52.707Z,3.88
2022-10-28T14:53:32.056Z,4.00
2022-10-28T14:56:09.582Z,4.55
2022-10-28T14:58:44.256Z,3.75
2022-10-28T15:01:17.168Z,5.15
2022-10-28T15:03:48.180Z,3.70
2022-10-28T15:06:39.217Z,4.07
2022-10-28T15:09:30.365Z,4.38
2022-10-28T15:12:07.592Z,4.70
2022-10-28T15:14:38.958Z,4.25
2022-10-28T15:17:17.774Z,3.65
2022-10-28T15:19:48.373Z,3.57
2022-10-28T15:22:24.224Z,3.45
2022-10-28T15:25:14.711Z,3.55
2022-10-28T15:27:43.228Z,4.10
2022-10-28T15:30:15.912Z,3.50
2022-10-28T15:32:42.401Z,4.07
2022-10-28T15:35:26.991Z,3.60
2022-10-28T15:37:55.022Z,4.25
2022-10-28T15:40:33.392Z,3.90
2022-10-28T15:43:07.382Z,3.20
2022-10-28T15:45:41.344Z,2.80
2022-10-28T15:48:14.605Z,3.70
2022-10-28T15:50:41.626Z,3.53
2022-10-28T15:53:11.037Z,3.80
2022-10-28T15:58:33.467Z,3.73
2022-10-28T16:01:00.053Z,4.03
2022-10-28T16:03:47.079Z,4.78
2022-10-28T16:06:31.697Z,4.28
2022-10-28T16:09:02.665Z,4.40
2022-10-28T16:11:30.921Z,4.90
2022-10-28T16:13:58.328Z,4.25
2022-10-28T16:16:28.122Z,4.07
2022-10-28T16:19:29.986Z,3.75
2022-10-28T16:21:56.513Z,5.15
2022-10-28T16:24:23.066Z,4.90
2022-10-28T16:26:49.559Z,4.80
2022-10-28T16:29:15.967Z,4.13
2022-10-28T16:31:42.592Z,5.32
2022-10-28T16:34:14.646Z,3.85
2022-10-28T16:36:41.132Z,4.20
2022-10-28T16:39:16.328Z,4.43
2022-10-28T16:41:42.842Z,4.68
2022-10-28T16:44:16.857Z,4.10
2022-10-28T16:46:43.447Z,5.05
2022-10-28T16:49:09.903Z,5.50
2022-10-28T16:51:36.489Z,4.68
2022-10-28T16:54:03.043Z,4.28
2022-10-28T16:56:29.487Z,4.10
2022-10-28T16:58:55.908Z,4.10
2022-10-28T17:01:22.812Z,4.20
2022-10-28T17:03:49.388Z,3.70
2022-10-28T17:06:15.912Z,3.95
2022-10-28T17:09:02.539Z,4.68
2022-10-28T17:11:28.958Z,4.00
2022-10-28T17:13:55.412Z,4.03
2022-10-28T17:16:22.027Z,4.07
2022-10-28T17:18:51.279Z,3.70
2022-10-28T17:21:18.722Z,3.90
2022-10-28T17:23:45.231Z,4.07
2022-10-28T17:26:11.740Z,4.20
2022-10-28T17:28:38.272Z,3.95
2022-10-28T17:31:06.522Z,3.95
2022-10-28T17:33:33.430Z,3.65
2022-10-28T17:36:05.895Z,3.35
2022-10-28T17:38:32.523Z,3.87
2022-10-28T17:40:59.087Z,4.82
2022-10-28T17:43:25.633Z,3.95
2022-10-28T17:45:52.329Z,3.95
2022-10-28T17:48:18.801Z,3.38
2022-10-28T17:50:53.824Z,3.70
2022-10-28T17:53:21.866Z,3.53
2022-10-28T17:55:58.369Z,3.63
2022-10-28T17:58:25.211Z,4.68
2022-10-28T18:01:01.997Z,4.60
2022-10-28T18:03:32.734Z,3.73
2022-10-28T18:06:03.853Z,4.28
2022-10-28T18:08:39.451Z,3.55
2022-10-28T18:11:07.936Z,3.88
2022-10-28T18:13:39.081Z,3.80
2022-10-28T18:16:06.502Z,3.50
2022-10-28T18:18:37.444Z,4.60
2022-10-28T18:21:11.028Z,3.72
2022-10-28T18:23:37.775Z,4.22
2022-10-28T18:26:04.206Z,4.18
2022-10-28T18:28:32.005Z,5.10
2022-10-28T18:31:07.535Z,4.55
2022-10-28T18:33:35.218Z,3.55
2022-10-28T18:36:04.438Z,3.75
2022-10-28T18:38:31.614Z,4.00
2022-10-28T18:40:58.279Z,4.18
2022-10-28T18:43:24.783Z,3.73
2022-10-28T18:45:51.964Z,3.42
2022-10-28T18:48:18.804Z,4.38
2022-10-28T18:50:56.746Z,3.33
2022-10-28T18:53:23.987Z,4.78
2022-10-28T18:55:50.472Z,3.43
2022-10-28T18:58:17.691Z,4.00
2022-10-28T19:00:44.337Z,4.75
2022-10-28T19:03:19.495Z,4.60
2022-10-28T19:05:46.272Z,5.38
2022-10-28T19:08:12.980Z,5.23
2022-10-28T19:10:39.485Z,4.65
2022-10-28T19:13:06.551Z,4.40
2022-10-28T19:15:33.112Z,4.13
2022-10-28T19:17:59.581Z,4.95
2022-10-28T19:20:26.087Z,5.17
2022-10-28T19:22:52.880Z,5.10
2022-10-28T19:25:19.735Z,5.50
2022-10-28T19:27:46.187Z,5.65
2022-10-28T19:30:13.705Z,4.75
2022-10-28T19:32:40.654Z,4.50
2022-10-28T19:35:07.457Z,4.95
2022-10-28T19:37:35.110Z,5.30
2022-10-28T19:40:01.817Z,6.07
2022-10-28T19:42:28.306Z,5.40
2022-10-28T19:44:55.777Z,5.13
2022-10-28T19:47:22.352Z,5.15
2022-10-28T19:49:48.779Z,5.22
2022-10-28T19:52:15.254Z,5.00
2022-10-28T19:54:41.824Z,5.15
2022-10-28T19:57:08.402Z,4.73
2022-10-28T19:59:34.939Z,4.68
2022-10-28T20:02:01.429Z,4.78
2022-10-28T20:04:27.987Z,5.55
2022-10-28T20:06:54.653Z,5.13
2022-10-28T20:09:25.063Z,5.00
2022-10-28T20:11:54.482Z,4.70
2022-10-28T20:14:21.022Z,5.05
2022-10-28T20:16:48.910Z,5.68
2022-10-28T20:19:15.390Z,6.43
2022-10-28T20:21:41.886Z,5.67
2022-10-28T20:24:08.906Z,4.97
2022-10-28T20:26:37.137Z,5.10
2022-10-28T20:29:06.520Z,5.38
2022-10-28T20:31:33.192Z,4.70
2022-10-28T20:34:03.485Z,5.80
2022-10-28T20:36:38.969Z,4.57
2022-10-28T20:39:12.525Z,5.63
2022-10-28T20:41:40.483Z,5.05
2022-10-28T20:44:07.694Z,5.13
2022-10-28T20:46:34.837Z,4.67
2022-10-28T20:49:01.971Z,4.03
2022-10-28T20:51:31.136Z,3.97
2022-10-28T20:53:58.494Z,4.63
2022-10-28T20:56:30.199Z,5.15
2022-10-28T20:58:57.936Z,4.13
2022-10-28T21:01:29.920Z,4.57
2022-10-28T21:04:00.360Z,5.18
2022-10-28T21:06:28.043Z,4.72
2022-10-28T21:08:55.063Z,4.03
2022-10-28T21:11:23.433Z,4.60
2022-10-28T21:13:52.479Z,4.03
2022-10-28T21:16:20.395Z,4.93
2022-10-28T21:18:47.539Z,4.55
2022-10-28T21:21:14.385Z,3.92
2022-10-28T21:23:41.110Z,4.03
2022-10-28T21:26:08.355Z,4.40
2022-10-28T21:28:35.947Z,4.03
2022-10-28T21:31:10.897Z,4.65
2022-10-28T21:33:38.480Z,4.10
2022-10-28T21:36:08.096Z,4.40
2022-10-28T21:38:35.815Z,4.20
2022-10-28T21:41:08.129Z,4.40
2022-10-28T21:43:36.867Z,4.15
2022-10-28T21:46:03.718Z,4.22
2022-10-28T21:48:31.833Z,4.30
2022-10-28T21:51:02.216Z,4.22
2022-10-28T21:53:32.100Z,4.18
2022-10-28T21:56:04.778Z,3.92
2022-10-28T21:58:31.838Z,3.80
2022-10-28T22:01:10.480Z,4.23
2022-10-28T22:03:37.325Z,3.70
2022-10-28T22:06:04.534Z,3.80
2022-10-28T22:08:31.163Z,3.78
2022-10-28T22:11:09.841Z,3.92
2022-10-28T22:13:36.950Z,4.50
2022-10-28T22:16:06.001Z,4.03
2022-10-28T22:18:35.041Z,2.95
2022-10-28T22:21:13.347Z,3.28
2022-10-28T22:23:40.079Z,2.50
2022-10-28T22:26:09.076Z,3.10
2022-10-28T22:28:35.693Z,3.33
2022-10-28T22:31:05.025Z,3.53
2022-10-28T22:33:31.501Z,2.92
2022-10-28T22:36:04.086Z,3.13
2022-10-28T22:38:30.696Z,3.53
2022-10-28T22:41:03.036Z,3.97
2022-10-28T22:43:29.764Z,3.42
2022-10-28T22:45:58.066Z,3.40
2022-10-28T22:48:24.787Z,3.97
2022-10-28T22:50:51.901Z,3.40
2022-10-28T22:53:18.682Z,3.33
2022-10-28T22:55:46.663Z,3.17
2022-10-28T22:58:13.329Z,3.45
2022-10-28T23:00:39.785Z,3.55
2022-10-28T23:03:06.295Z,3.40
2022-10-28T23:05:32.823Z,4.18
2022-10-28T23:08:01.832Z,3.65
2022-10-28T23:10:28.885Z,4.10
2022-10-28T23:12:56.982Z,4.47
2022-10-28T23:15:24.241Z,5.27
2022-10-28T23:17:51.875Z,4.53
2022-10-28T23:20:23.819Z,3.70
2022-10-28T23:22:50.364Z,4.00
2022-10-28T23:25:17.124Z,3.85
2022-10-28T23:27:44.313Z,4.20
2022-10-28T23:30:12.973Z,4.20
2022-10-28T23:32:39.902Z,4.53
2022-10-28T23:35:07.649Z,4.18
2022-10-28T23:37:34.202Z,3.92
2022-10-28T23:40:00.791Z,3.77
2022-10-28T23:42:27.370Z,4.50
2022-10-28T23:44:53.814Z,3.65
2022-10-28T23:47:20.296Z,4.75
2022-10-28T23:49:46.789Z,4.72
2022-10-28T23:52:13.274Z,4.67
2022-10-28T23:54:39.712Z,3.90
2022-10-28T23:57:06.173Z,3.95
2022-10-28T23:59:32.626Z,3.92
